< < Back
Terminal Aerodrome Forecast


Current Version              Previous Versions:   1  2  3  4  5  6  7  8  9  

Terminal Aerodrome Forecast

723
FTUS44 KMRX 221603 AAB
TAFCHA
TAF AMD
KCHA 221603Z 2216/2312 24006KT P6SM -SHRA SCT025 OVC060
      TEMPO 2217/2220 4SM -SHRA BR BKN025 OVC050
     FM222000 32009KT P6SM BKN035
     FM230400 35007KT P6SM SKC=



Latest METAR

444
SAUS80 KWBC 231000 RRA
MTRCHA
METAR KCHA 230953Z 33006KT 10SM CLR 12/04 A2994 RMK AO2 SLP133 FIRST
T01170039


USA.gov is the U.S. government's official web portal to all federal, state and local government web resources and services.